Time;durP1;ratioP1;P1;durP2;ratioP2;P2;SDS_P1;SDS_P2;PMS_P1;PMS_P2;Temp;Humidity;BMP_temperature;BMP_pressure;BME280_temperature;BME280_humidity;BME280_pressure;Samples;Min_cycle;Max_cycle;Signal;HPM_P1;HPM_P2
2023/01/18 00:01:14;;;;;;;8.73;3.40;;;0.10;99.90;;;;;;5115402;27;20038;-89
2023/01/18 00:03:41;;;;;;;8.25;2.50;;;0.10;99.90;;;;;;5131508;27;20054;-90
2023/01/18 00:06:09;;;;;;;8.52;2.88;;;0.10;99.90;;;;;;5115575;27;20078;-90
2023/01/18 00:08:37;;;;;;;14.00;4.10;;;0.10;99.90;;;;;;5114652;27;20450;-90
2023/01/18 00:11:11;;;;;;;8.93;2.80;;;0.10;99.90;;;;;;5132234;27;20421;-91
2023/01/18 00:13:37;;;;;;;11.82;4.00;;;0.10;99.90;;;;;;5131762;27;20093;-90
2023/01/18 00:16:15;;;;;;;9.63;3.30;;;0.00;99.90;;;;;;5113045;27;20043;-90
2023/01/18 00:18:41;;;;;;;9.65;3.35;;;0.00;99.90;;;;;;5114936;27;20041;-89
2023/01/18 00:21:09;;;;;;;7.07;3.15;;;0.00;99.90;;;;;;5114231;27;20496;-89
2023/01/18 00:23:35;;;;;;;9.60;3.55;;;-0.10;99.90;;;;;;5114870;27;20031;-89
2023/01/18 00:26:06;;;;;;;8.88;3.75;;;-0.10;99.90;;;;;;5131570;27;20131;-90
2023/01/18 00:28:33;;;;;;;10.20;3.63;;;-0.10;99.90;;;;;;5114396;27;20043;-88
2023/01/18 00:30:58;;;;;;;8.48;2.90;;;-0.10;99.90;;;;;;5114218;27;20031;-89
2023/01/18 00:33:24;;;;;;;8.40;3.30;;;-0.10;99.90;;;;;;5113611;27;20031;-91
2023/01/18 00:35:58;;;;;;;10.77;4.05;;;-0.10;99.90;;;;;;5114327;27;20046;-88
2023/01/18 00:38:24;;;;;;;8.75;3.90;;;-0.10;99.90;;;;;;5113651;27;20077;-89
2023/01/18 00:40:50;;;;;;;10.00;4.65;;;-0.10;99.90;;;;;;5114249;27;20508;-90
2023/01/18 00:46:00;;;;;;;9.02;3.80;;;-0.10;99.90;;;;;;5131581;27;20035;-89
2023/01/18 00:48:25;;;;;;;8.52;3.70;;;-0.10;99.90;;;;;;5131093;27;20054;-88
2023/01/18 00:50:51;;;;;;;10.93;4.43;;;-0.10;99.90;;;;;;5113637;27;20054;-89
2023/01/18 00:53:16;;;;;;;8.63;3.47;;;-0.20;99.90;;;;;;5130660;27;20035;-89
2023/01/18 00:55:42;;;;;;;10.63;4.25;;;-0.20;99.90;;;;;;5113539;27;20043;-89
2023/01/18 00:58:07;;;;;;;11.05;4.53;;;-0.20;99.90;;;;;;5114024;27;20043;-88
2023/01/18 01:00:33;;;;;;;8.20;3.47;;;-0.20;99.90;;;;;;5114052;27;20042;-89
2023/01/18 01:02:59;;;;;;;7.90;3.53;;;-0.20;99.90;;;;;;5114147;27;20550;-89
2023/01/18 01:08:15;;;;;;;10.65;4.43;;;-0.20;99.90;;;;;;5129887;27;20043;-90
2023/01/18 01:10:43;;;;;;;9.65;4.75;;;-0.20;99.90;;;;;;5113832;27;20043;-88
2023/01/18 01:26:52;;;;;;;9.32;4.22;;;-0.40;99.90;;;;;;5129910;27;20702;-88
2023/01/18 01:29:17;;;;;;;10.75;4.55;;;-0.40;99.90;;;;;;5113265;27;20118;-89
2023/01/18 01:31:43;;;;;;;9.02;4.60;;;-0.40;99.90;;;;;;5129919;27;20070;-89
2023/01/18 01:34:09;;;;;;;10.80;4.95;;;-0.30;99.90;;;;;;5112932;27;20038;-90
2023/01/18 01:36:34;;;;;;;10.45;4.78;;;-0.30;99.90;;;;;;5112837;27;20039;-89
2023/01/18 01:39:01;;;;;;;10.60;4.75;;;-0.40;99.90;;;;;;5113265;27;20122;-89
2023/01/18 01:41:30;;;;;;;9.40;4.72;;;-0.30;99.90;;;;;;5121919;27;20036;-88
2023/01/18 01:43:56;;;;;;;10.85;4.75;;;-0.30;99.90;;;;;;5112882;28;20067;-88
2023/01/18 01:46:39;;;;;;;10.60;5.15;;;-0.30;99.90;;;;;;5113464;27;20168;-88
2023/01/18 01:49:16;;;;;;;10.20;4.43;;;-0.30;99.90;;;;;;5129584;27;20412;-88
2023/01/18 01:51:52;;;;;;;11.65;4.63;;;-0.30;99.90;;;;;;5130232;28;20066;-89
2023/01/18 01:54:28;;;;;;;11.23;4.90;;;-0.30;99.90;;;;;;5111770;28;20031;-89
2023/01/18 01:57:04;;;;;;;8.60;4.07;;;-0.40;99.90;;;;;;5130447;28;20062;-88
2023/01/18 01:59:32;;;;;;;11.65;5.30;;;-0.40;99.90;;;;;;5130352;28;20043;-88
2023/01/18 02:01:58;;;;;;;13.30;4.97;;;-0.40;99.90;;;;;;5112666;28;20029;-88
2023/01/18 02:04:23;;;;;;;11.75;5.75;;;-0.40;99.90;;;;;;5113294;28;20047;-88
2023/01/18 02:06:49;;;;;;;11.10;5.82;;;-0.40;99.90;;;;;;5130702;28;20054;-88
2023/01/18 02:09:15;;;;;;;9.68;4.63;;;-0.40;99.90;;;;;;5112045;28;20452;-87
2023/01/18 02:11:42;;;;;;;8.98;4.78;;;-0.40;99.90;;;;;;5113036;28;20496;-89
2023/01/18 02:14:14;;;;;;;11.48;5.28;;;-0.40;99.90;;;;;;5112166;28;20169;-88
2023/01/18 02:16:49;;;;;;;10.23;5.35;;;-0.40;99.90;;;;;;5112695;28;20555;-88
2023/01/18 02:19:24;;;;;;;10.60;4.93;;;-0.30;99.90;;;;;;5113061;28;20123;-88
2023/01/18 02:22:18;;;;;;;12.98;5.95;;;-0.30;99.90;;;;;;5111850;28;20054;-89
2023/01/18 02:25:14;;;;;;;9.63;4.95;;;-0.30;99.90;;;;;;5113431;28;20046;-89
2023/01/18 02:27:46;;;;;;;12.15;5.65;;;-0.30;99.90;;;;;;5130454;28;20047;-89
2023/01/18 02:30:29;;;;;;;14.60;5.97;;;-0.30;99.90;;;;;;5130306;28;20385;-89
2023/01/18 02:33:11;;;;;;;12.13;5.05;;;-0.30;99.90;;;;;;5111816;28;20525;-89
2023/01/18 02:35:48;;;;;;;10.10;4.93;;;-0.30;99.90;;;;;;5130011;28;20036;-89
2023/01/18 02:38:34;;;;;;;10.55;5.22;;;-0.30;99.90;;;;;;5113356;27;20031;-90
2023/01/18 02:41:15;;;;;;;12.85;5.60;;;-0.30;99.90;;;;;;5133760;27;20055;-90
2023/01/18 02:46:35;;;;;;;15.48;5.30;;;-0.30;99.90;;;;;;5134235;27;20420;-90
2023/01/18 02:49:17;;;;;;;12.05;6.22;;;-0.30;99.90;;;;;;5116520;27;20540;-90
2023/01/18 02:51:43;;;;;;;10.88;5.75;;;-0.30;99.90;;;;;;5133048;27;20047;-90
2023/01/18 02:54:10;;;;;;;11.45;4.90;;;-0.30;99.90;;;;;;5115915;27;20047;-90
2023/01/18 02:56:48;;;;;;;8.85;4.65;;;-0.20;99.90;;;;;;5115882;27;20067;-90
2023/01/18 02:59:36;;;;;;;10.40;5.53;;;-0.20;99.90;;;;;;5075766;28;20052;-90
2023/01/18 03:02:28;;;;;;;12.75;5.40;;;-0.20;99.90;;;;;;5076730;27;20073;-90
2023/01/18 03:04:54;;;;;;;9.98;5.28;;;-0.20;99.90;;;;;;5112451;27;20091;-90
2023/01/18 03:08:03;;;;;;;10.10;5.00;;;-0.20;99.90;;;;;;5116426;27;20042;-90
2023/01/18 03:10:31;;;;;;;11.18;5.05;;;-0.20;99.90;;;;;;5115036;27;20122;-91
2023/01/18 03:13:08;;;;;;;10.50;4.93;;;-0.20;99.90;;;;;;5115584;27;20518;-91
2023/01/18 03:16:06;;;;;;;10.07;4.68;;;-0.20;99.90;;;;;;5115155;27;20050;-90
2023/01/18 03:18:58;;;;;;;11.93;4.50;;;-0.20;99.90;;;;;;5016994;28;20228;-90
2023/01/18 03:21:29;;;;;;;15.02;5.80;;;-0.20;99.90;;;;;;5033604;28;20051;-90
2023/01/18 03:23:56;;;;;;;12.70;5.65;;;-0.30;99.90;;;;;;5033719;28;20045;-91
2023/01/18 03:26:23;;;;;;;11.63;4.63;;;-0.30;99.90;;;;;;5034631;28;20052;-90
2023/01/18 03:34:53;;;;;;;9.68;4.82;;;-0.30;99.90;;;;;;5032853;28;20131;-90
2023/01/18 03:37:28;;;;;;;10.68;4.88;;;-0.30;99.90;;;;;;5033763;28;20044;-90
2023/01/18 03:39:59;;;;;;;11.05;5.47;;;-0.30;99.90;;;;;;5032805;28;20049;-90
2023/01/18 03:42:29;;;;;;;10.60;4.70;;;-0.30;99.90;;;;;;5017043;28;20087;-90
2023/01/18 03:45:11;;;;;;;10.23;5.18;;;-0.30;99.90;;;;;;5017388;28;20411;-91
2023/01/18 03:47:37;;;;;;;9.70;4.72;;;-0.30;99.90;;;;;;5017264;28;20041;-90
2023/01/18 03:50:03;;;;;;;11.40;4.57;;;-0.30;99.90;;;;;;5015980;28;20048;-89
2023/01/18 03:52:36;;;;;;;11.85;4.97;;;-0.30;99.90;;;;;;5032973;28;20037;-90
2023/01/18 03:55:44;;;;;;;13.25;5.88;;;-0.30;99.90;;;;;;5054749;27;20107;-90
2023/01/18 03:58:13;;;;;;;9.95;5.40;;;-0.30;99.90;;;;;;5016579;28;20055;-90
2023/01/18 04:00:39;;;;;;;11.02;5.53;;;-0.40;99.90;;;;;;5033297;28;20094;-90
2023/01/18 04:03:06;;;;;;;10.27;4.75;;;-0.40;99.90;;;;;;5032051;28;20192;-91
2023/01/18 04:05:33;;;;;;;11.05;5.75;;;-0.50;99.90;;;;;;5017380;28;20076;-90
2023/01/18 04:07:58;;;;;;;10.43;5.57;;;-0.50;99.90;;;;;;5033574;28;20052;-90
2023/01/18 04:10:25;;;;;;;12.18;5.15;;;-0.50;99.90;;;;;;5032378;28;20156;-90
2023/01/18 04:12:51;;;;;;;12.50;5.93;;;-0.50;99.90;;;;;;5032845;28;20049;-90
2023/01/18 04:15:16;;;;;;;12.45;5.90;;;-0.50;99.90;;;;;;5016190;28;20097;-90
2023/01/18 04:17:42;;;;;;;12.55;5.93;;;-0.50;99.90;;;;;;5032358;28;20605;-90
2023/01/18 04:20:08;;;;;;;10.85;5.78;;;-0.50;99.90;;;;;;5016064;28;20033;-90
2023/01/18 04:22:34;;;;;;;11.20;5.70;;;-0.50;99.90;;;;;;5031884;28;20056;-90
2023/01/18 04:24:59;;;;;;;11.45;5.78;;;-0.50;99.90;;;;;;5033222;28;20048;-91
2023/01/18 04:27:25;;;;;;;12.27;5.88;;;-0.50;99.90;;;;;;5033028;28;20114;-90
2023/01/18 04:29:51;;;;;;;10.60;5.60;;;-0.50;99.90;;;;;;5031687;28;20044;-90
2023/01/18 04:32:16;;;;;;;11.43;5.65;;;-0.40;99.90;;;;;;5015561;28;20037;-90
2023/01/18 04:34:42;;;;;;;11.15;6.15;;;-0.40;99.90;;;;;;5077928;27;20079;-90
2023/01/18 04:37:08;;;;;;;12.18;6.50;;;-0.40;99.90;;;;;;5114559;27;20031;-90
2023/01/18 04:39:33;;;;;;;14.73;6.40;;;-0.40;99.90;;;;;;5100444;27;20925;-90
2023/01/18 04:41:59;;;;;;;11.40;6.70;;;-0.40;99.90;;;;;;5130586;27;20050;-90
2023/01/18 04:44:25;;;;;;;12.65;6.05;;;-0.40;99.90;;;;;;5131682;27;20043;-90
2023/01/18 04:46:51;;;;;;;12.00;6.55;;;-0.40;99.90;;;;;;5130970;27;20125;-90
2023/01/18 04:49:16;;;;;;;12.65;6.45;;;-0.30;99.90;;;;;;5131174;27;20148;-90
2023/01/18 04:51:44;;;;;;;12.07;6.55;;;-0.40;99.90;;;;;;5114061;27;20092;-91
2023/01/18 04:54:11;;;;;;;12.57;6.97;;;-0.40;99.90;;;;;;5112919;27;20122;-91
2023/01/18 04:56:37;;;;;;;15.38;6.65;;;-0.40;99.90;;;;;;5131020;27;20043;-90
2023/01/18 04:59:02;;;;;;;13.95;7.05;;;-0.40;99.90;;;;;;5130881;27;20031;-90
2023/01/18 05:01:28;;;;;;;11.18;6.75;;;-0.40;99.90;;;;;;5112662;27;20135;-90
2023/01/18 05:03:55;;;;;;;11.48;6.57;;;-0.40;99.90;;;;;;5113997;27;20046;-90
2023/01/18 05:06:21;;;;;;;13.43;6.38;;;-0.40;99.90;;;;;;5130748;27;20088;-90
2023/01/18 05:08:46;;;;;;;13.73;6.65;;;-0.40;99.90;;;;;;5131077;27;20046;-90
2023/01/18 05:11:15;;;;;;;13.77;6.28;;;-0.40;99.90;;;;;;5112986;27;20414;-90
2023/01/18 05:13:41;;;;;;;12.23;6.72;;;-0.40;99.90;;;;;;5130677;27;20469;-90
2023/01/18 05:16:13;;;;;;;13.55;6.07;;;-0.30;99.90;;;;;;5130411;27;20035;-90
2023/01/18 05:18:38;;;;;;;13.55;6.18;;;-0.30;99.90;;;;;;5130327;27;20035;-91
2023/01/18 05:21:04;;;;;;;13.30;6.10;;;-0.30;99.90;;;;;;5113501;27;20039;-90
2023/01/18 05:23:30;;;;;;;11.77;5.60;;;-0.30;99.90;;;;;;5113371;27;20035;-90
2023/01/18 05:25:57;;;;;;;11.02;5.18;;;-0.30;99.90;;;;;;5113792;27;20043;-90
2023/01/18 05:28:24;;;;;;;10.80;4.90;;;-0.40;99.90;;;;;;5113911;27;20147;-90
2023/01/18 05:30:50;;;;;;;10.77;5.35;;;-0.30;99.90;;;;;;5129168;27;20035;-90
2023/01/18 05:33:17;;;;;;;11.32;5.50;;;-0.40;99.90;;;;;;5113581;27;20412;-90
2023/01/18 05:35:53;;;;;;;11.90;5.85;;;-0.30;99.90;;;;;;5112759;27;20070;-90
2023/01/18 05:38:20;;;;;;;13.02;5.93;;;-0.40;99.90;;;;;;5113641;27;20173;-90
2023/01/18 05:40:51;;;;;;;14.35;6.32;;;-0.40;99.90;;;;;;5113384;27;20066;-90
2023/01/18 05:43:19;;;;;;;10.57;5.38;;;-0.40;99.90;;;;;;5129783;27;20031;-90
2023/01/18 05:45:44;;;;;;;11.85;4.90;;;-0.40;99.90;;;;;;5113739;27;20039;-90
2023/01/18 05:48:11;;;;;;;10.88;5.70;;;-0.40;99.90;;;;;;5113427;28;20039;-90
2023/01/18 05:50:42;;;;;;;12.07;5.80;;;-0.40;99.90;;;;;;5112689;28;20053;-90
2023/01/18 05:53:08;;;;;;;15.82;6.20;;;-0.40;99.90;;;;;;5112868;28;20035;-90
2023/01/18 05:55:34;;;;;;;10.93;5.78;;;-0.40;99.90;;;;;;5129499;28;20118;-90
2023/01/18 05:58:00;;;;;;;11.85;5.53;;;-0.40;99.90;;;;;;5130574;28;20131;-90
2023/01/18 06:00:26;;;;;;;13.68;6.43;;;-0.40;99.90;;;;;;5129646;28;20070;-90
2023/01/18 06:02:52;;;;;;;15.40;6.22;;;-0.40;99.90;;;;;;5130254;28;20636;-90
2023/01/18 06:05:22;;;;;;;14.80;5.82;;;-0.40;99.90;;;;;;5130328;28;20126;-91
2023/01/18 06:07:48;;;;;;;11.00;6.13;;;-0.40;99.90;;;;;;5130238;28;20064;-90
2023/01/18 06:10:14;;;;;;;13.20;6.43;;;-0.40;99.90;;;;;;5112823;28;20457;-90
2023/01/18 06:12:40;;;;;;;14.45;7.22;;;-0.40;99.90;;;;;;5127671;27;20397;-90
2023/01/18 06:15:07;;;;;;;14.23;6.70;;;-0.40;99.90;;;;;;5115683;27;20047;-90
2023/01/18 06:17:33;;;;;;;12.48;6.60;;;-0.40;99.90;;;;;;5114844;27;20031;-90
2023/01/18 06:19:59;;;;;;;11.65;6.03;;;-0.40;99.90;;;;;;5115412;27;20056;-90
2023/01/18 06:22:24;;;;;;;12.05;6.53;;;-0.40;99.90;;;;;;5116303;27;20035;-90
2023/01/18 06:24:50;;;;;;;16.67;7.68;;;-0.50;99.90;;;;;;5116657;27;20349;-90
2023/01/18 06:27:16;;;;;;;13.18;6.57;;;-0.50;99.90;;;;;;5135034;27;20051;-90
2023/01/18 06:29:41;;;;;;;16.25;7.88;;;-0.50;99.90;;;;;;5116830;27;20038;-90
2023/01/18 06:32:07;;;;;;;14.27;7.05;;;-0.50;99.90;;;;;;5098053;28;20481;-90
2023/01/18 06:34:33;;;;;;;14.00;6.95;;;-0.50;99.90;;;;;;5096766;28;20043;-90
2023/01/18 06:36:58;;;;;;;12.32;6.72;;;-0.50;99.90;;;;;;5115788;27;20047;-90
2023/01/18 06:39:24;;;;;;;12.98;6.75;;;-0.50;99.90;;;;;;5134142;27;20069;-89
2023/01/18 06:41:50;;;;;;;14.43;7.78;;;-0.50;99.90;;;;;;5116223;27;20081;-90
2023/01/18 06:44:16;;;;;;;12.82;5.95;;;-0.50;99.90;;;;;;5116466;27;20074;-91
2023/01/18 06:46:45;;;;;;;13.75;6.20;;;-0.60;99.90;;;;;;5117084;27;20131;-90
2023/01/18 06:49:11;;;;;;;12.52;6.53;;;-0.60;99.90;;;;;;5115239;27;20039;-91
2023/01/18 06:51:37;;;;;;;12.52;7.25;;;-0.60;99.90;;;;;;5112445;28;20485;-90
2023/01/18 06:54:03;;;;;;;13.35;6.95;;;-0.60;99.90;;;;;;5095989;28;20040;-91
2023/01/18 06:56:29;;;;;;;12.98;6.88;;;-0.60;99.90;;;;;;5113865;27;20035;-89
2023/01/18 06:58:57;;;;;;;15.05;7.28;;;-0.60;99.90;;;;;;5116299;27;20084;-91
2023/01/18 07:01:24;;;;;;;13.57;6.22;;;-0.60;99.90;;;;;;5115838;27;20047;-91
2023/01/18 07:03:49;;;;;;;14.02;6.47;;;-0.60;99.90;;;;;;5132590;27;20091;-90
2023/01/18 07:06:15;;;;;;;12.43;6.65;;;-0.60;99.90;;;;;;5134114;27;20047;-90
2023/01/18 07:08:41;;;;;;;13.43;6.40;;;-0.60;99.90;;;;;;5132635;27;20122;-91
2023/01/18 07:11:09;;;;;;;15.48;6.57;;;-0.60;99.90;;;;;;5116046;27;20416;-90
2023/01/18 07:13:39;;;;;;;12.65;7.07;;;-0.60;99.90;;;;;;5115536;27;20042;-91
2023/01/18 07:16:06;;;;;;;14.27;8.27;;;-0.60;99.90;;;;;;5099378;28;20039;-90
2023/01/18 07:18:32;;;;;;;14.05;7.45;;;-0.60;99.90;;;;;;5112828;27;20122;-90
2023/01/18 07:21:07;;;;;;;12.73;6.57;;;-0.60;99.90;;;;;;5115247;27;20138;-91
2023/01/18 07:23:34;;;;;;;13.25;6.88;;;-0.70;99.90;;;;;;5095696;28;20085;-91
2023/01/18 07:26:02;;;;;;;18.95;7.03;;;-0.70;99.90;;;;;;5108763;27;20046;-90
2023/01/18 07:28:28;;;;;;;13.05;6.38;;;-0.70;99.90;;;;;;5116218;27;20423;-91
2023/01/18 07:30:54;;;;;;;14.43;7.50;;;-0.70;99.90;;;;;;5114852;27;20393;-90
2023/01/18 07:33:19;;;;;;;15.00;8.02;;;-0.70;99.90;;;;;;5115173;27;20054;-91
2023/01/18 07:35:45;;;;;;;15.60;8.52;;;-0.70;99.90;;;;;;5115896;27;20043;-91
2023/01/18 07:38:11;;;;;;;14.48;8.25;;;-0.70;99.90;;;;;;5132216;27;20039;-90
2023/01/18 07:40:36;;;;;;;15.07;7.45;;;-0.70;99.90;;;;;;5115761;27;20160;-91
2023/01/18 07:43:02;;;;;;;16.38;8.50;;;-0.60;99.90;;;;;;5114582;27;20027;-91
2023/01/18 07:45:28;;;;;;;15.23;8.55;;;-0.60;99.90;;;;;;5133205;27;20039;-91
2023/01/18 07:47:54;;;;;;;17.27;8.10;;;-0.60;99.90;;;;;;5115758;27;20522;-90
2023/01/18 07:50:21;;;;;;;16.10;8.20;;;-0.70;99.90;;;;;;5132729;27;20042;-90
2023/01/18 07:52:47;;;;;;;13.23;7.40;;;-0.60;99.90;;;;;;5114230;27;20031;-91
2023/01/18 07:55:12;;;;;;;15.93;8.63;;;-0.60;99.90;;;;;;5114243;27;20126;-90
2023/01/18 07:57:38;;;;;;;16.33;8.68;;;-0.60;99.90;;;;;;5114500;27;20126;-91
2023/01/18 08:00:08;;;;;;;15.48;7.95;;;-0.60;99.90;;;;;;5102489;28;20043;-90
2023/01/18 08:02:34;;;;;;;14.68;7.68;;;-0.50;99.90;;;;;;5113021;27;20035;-90
2023/01/18 08:04:59;;;;;;;16.63;7.93;;;-0.50;99.90;;;;;;5115261;27;20046;-90
2023/01/18 08:07:25;;;;;;;17.73;8.23;;;-0.50;99.90;;;;;;5131792;27;20043;-90
2023/01/18 08:09:50;;;;;;;15.48;8.38;;;-0.50;99.90;;;;;;5114779;27;20038;-90
2023/01/18 08:12:17;;;;;;;16.20;8.10;;;-0.50;99.90;;;;;;5113181;27;20054;-90
2023/01/18 08:14:44;;;;;;;12.35;6.88;;;-0.40;99.90;;;;;;5114746;27;20043;-90
2023/01/18 08:17:10;;;;;;;15.02;7.38;;;-0.40;99.90;;;;;;5114676;27;20031;-91
2023/01/18 08:19:35;;;;;;;14.52;7.85;;;-0.40;99.90;;;;;;5114120;27;20027;-92
2023/01/18 08:22:02;;;;;;;15.15;7.88;;;-0.30;99.90;;;;;;5130093;27;20499;-91
2023/01/18 08:24:27;;;;;;;14.15;7.85;;;-0.30;99.90;;;;;;5114218;27;20046;-91
2023/01/18 08:26:53;;;;;;;15.02;7.93;;;-0.30;99.90;;;;;;5113893;27;20683;-91
2023/01/18 08:29:18;;;;;;;15.82;8.43;;;-0.30;99.90;;;;;;5114726;27;20043;-91
2023/01/18 08:31:44;;;;;;;13.90;7.68;;;-0.20;99.90;;;;;;5130088;27;20046;-91
2023/01/18 08:34:10;;;;;;;16.75;8.32;;;-0.20;99.90;;;;;;5114239;27;20031;-91
2023/01/18 08:36:35;;;;;;;15.15;8.27;;;-0.20;99.90;;;;;;5113158;27;20591;-90
2023/01/18 08:39:01;;;;;;;16.90;7.55;;;-0.10;99.90;;;;;;5104721;27;20046;-91
2023/01/18 08:41:28;;;;;;;15.00;7.82;;;-0.10;99.90;;;;;;5113837;27;20050;-91
2023/01/18 08:43:57;;;;;;;13.70;7.20;;;-0.10;99.90;;;;;;5112698;27;20065;-90
2023/01/18 08:46:23;;;;;;;13.55;7.22;;;-0.10;99.90;;;;;;5131342;27;20047;-90
2023/01/18 08:48:54;;;;;;;15.10;7.38;;;0.00;99.90;;;;;;5114387;27;20031;-90
2023/01/18 08:51:21;;;;;;;15.32;7.80;;;0.00;99.90;;;;;;5100910;28;20036;-90
2023/01/18 08:53:50;;;;;;;12.90;6.90;;;0.00;99.90;;;;;;5110370;28;20096;-90
2023/01/18 08:56:16;;;;;;;14.65;7.70;;;0.10;99.90;;;;;;5102172;27;20038;-90
2023/01/18 08:58:42;;;;;;;14.88;7.10;;;0.10;99.90;;;;;;5113192;27;20534;-91
2023/01/18 09:01:08;;;;;;;15.00;7.28;;;0.10;99.90;;;;;;5113097;27;20034;-90
2023/01/18 09:03:35;;;;;;;15.80;7.47;;;0.20;99.90;;;;;;5112878;27;20408;-91
2023/01/18 09:06:08;;;;;;;14.80;7.47;;;0.20;99.90;;;;;;5109173;27;20035;-89
2023/01/18 09:08:35;;;;;;;15.90;7.80;;;0.30;99.90;;;;;;5106988;27;20031;-90
2023/01/18 09:11:06;;;;;;;15.55;7.90;;;0.30;99.90;;;;;;5113581;27;20092;-90
2023/01/18 09:13:32;;;;;;;14.35;7.75;;;0.40;99.90;;;;;;5112709;27;20046;-90
2023/01/18 09:16:06;;;;;;;12.35;6.00;;;0.40;99.90;;;;;;5096842;28;20540;-90
2023/01/18 09:18:32;;;;;;;12.27;6.43;;;0.50;99.90;;;;;;5088930;28;20024;-90
2023/01/18 09:20:57;;;;;;;11.18;6.30;;;0.50;99.90;;;;;;5093316;28;20077;-90
2023/01/18 09:23:23;;;;;;;15.57;7.45;;;0.60;99.90;;;;;;5092269;28;20035;-91
2023/01/18 09:26:07;;;;;;;13.25;6.03;;;0.70;99.90;;;;;;5104557;27;20031;-90
2023/01/18 09:28:33;;;;;;;11.15;5.20;;;0.70;99.90;;;;;;5113663;27;20043;-90
2023/01/18 09:31:01;;;;;;;12.52;6.43;;;0.80;99.90;;;;;;5112141;27;20070;-91
2023/01/18 09:33:27;;;;;;;11.73;6.18;;;0.90;99.90;;;;;;5092883;28;20092;-91
2023/01/18 09:35:54;;;;;;;14.40;6.35;;;1.00;99.90;;;;;;5093659;27;20496;-91
2023/01/18 09:38:20;;;;;;;12.32;6.47;;;1.00;99.90;;;;;;5112059;27;20081;-91
2023/01/18 09:40:46;;;;;;;12.68;6.10;;;1.10;99.90;;;;;;5130128;27;20146;-90
2023/01/18 09:43:27;;;;;;;12.73;5.60;;;1.20;99.90;;;;;;5128928;27;20523;-90
2023/01/18 09:45:54;;;;;;;12.50;6.38;;;1.30;99.90;;;;;;5113622;27;20037;-91
2023/01/18 09:48:34;;;;;;;12.13;5.60;;;1.40;99.90;;;;;;5129792;27;20400;-91
2023/01/18 09:51:07;;;;;;;11.52;5.40;;;1.40;99.90;;;;;;5111876;28;20112;-91
2023/01/18 09:53:56;;;;;;;11.50;5.47;;;1.50;99.90;;;;;;5112474;28;20039;-91
2023/01/18 09:56:28;;;;;;;16.00;6.82;;;1.60;99.90;;;;;;5130137;28;20039;-90
2023/01/18 09:58:58;;;;;;;12.38;5.97;;;1.70;99.90;;;;;;5112432;28;20149;-90
2023/01/18 10:01:28;;;;;;;12.30;5.85;;;1.70;99.90;;;;;;5129055;28;20111;-91
2023/01/18 10:04:16;;;;;;;11.32;5.20;;;1.80;99.90;;;;;;5112708;28;20829;-92
2023/01/18 10:07:01;;;;;;;12.45;5.88;;;1.80;99.90;;;;;;5112536;28;20039;-91
2023/01/18 10:09:31;;;;;;;12.93;6.20;;;1.90;99.90;;;;;;5112977;28;20035;-90
2023/01/18 10:12:05;;;;;;;11.05;5.47;;;2.00;99.90;;;;;;5129856;28;20469;-91
2023/01/18 10:14:46;;;;;;;13.82;5.75;;;2.00;99.90;;;;;;5129556;28;20043;-92
2023/01/18 10:17:19;;;;;;;12.23;5.80;;;2.00;99.90;;;;;;5113068;28;20064;-92
2023/01/18 10:19:45;;;;;;;13.25;5.30;;;2.10;99.90;;;;;;5111859;28;20553;-91
2023/01/18 10:22:29;;;;;;;10.73;4.90;;;2.20;99.90;;;;;;5111966;28;20035;-91
2023/01/18 10:25:01;;;;;;;10.73;4.95;;;2.20;99.90;;;;;;5129831;28;20051;-91
2023/01/18 10:28:03;;;;;;;13.48;5.85;;;2.30;99.90;;;;;;5129914;28;20572;-90
2023/01/18 10:30:39;;;;;;;14.90;5.95;;;2.30;99.90;;;;;;5112514;28;20031;-92
2023/01/18 10:33:20;;;;;;;10.57;5.32;;;2.40;99.90;;;;;;5111277;28;20500;-92
2023/01/18 10:35:49;;;;;;;10.70;5.40;;;2.50;99.90;;;;;;5109046;28;20506;-91
2023/01/18 10:38:19;;;;;;;9.82;5.20;;;2.50;99.90;;;;;;5093337;28;20031;-91
2023/01/18 10:40:58;;;;;;;13.85;5.63;;;2.60;99.90;;;;;;5091051;28;20061;-90
2023/01/18 10:43:26;;;;;;;11.23;5.22;;;2.60;99.90;;;;;;5108080;28;20112;-91
2023/01/18 10:45:53;;;;;;;11.52;5.47;;;2.70;99.90;;;;;;5111707;28;20036;-92
2023/01/18 10:48:29;;;;;;;11.27;4.97;;;2.80;99.90;;;;;;5109105;28;20032;-91
2023/01/18 10:50:58;;;;;;;12.57;5.13;;;2.80;99.90;;;;;;5091531;28;20043;-92
2023/01/18 10:53:34;;;;;;;11.35;5.28;;;2.90;99.90;;;;;;5109777;28;20028;-91
2023/01/18 10:56:09;;;;;;;12.05;5.75;;;3.00;99.90;;;;;;5110341;28;20071;-91
2023/01/18 10:58:49;;;;;;;12.18;5.30;;;3.10;99.90;;;;;;5091168;28;20039;-90
2023/01/18 11:01:23;;;;;;;13.73;5.88;;;3.10;99.90;;;;;;5092408;28;20378;-91
2023/01/18 11:03:52;;;;;;;12.50;4.72;;;3.20;99.90;;;;;;5127615;27;20036;-91
2023/01/18 11:06:19;;;;;;;10.77;4.78;;;3.20;99.90;;;;;;5095999;28;20042;-90
2023/01/18 11:08:46;;;;;;;9.93;4.65;;;3.30;99.90;;;;;;5114599;27;20035;-91
2023/01/18 11:12:32;;;;;;;11.65;4.78;;;3.40;99.90;;;;;;5115760;27;20050;-91
2023/01/18 11:14:29;;;;;;;11.43;4.63;;;3.40;99.90;;;;;;5130873;27;20055;-90
2023/01/18 11:17:09;;;;;;;10.80;4.60;;;3.50;99.90;;;;;;5116206;27;20080;-91
2023/01/18 11:19:36;;;;;;;11.00;5.10;;;3.50;99.90;;;;;;5132087;27;20161;-91
2023/01/18 11:22:02;;;;;;;10.98;5.40;;;3.60;99.90;;;;;;5114931;27;20053;-91
2023/01/18 11:24:30;;;;;;;12.45;4.82;;;3.60;99.90;;;;;;5115339;27;20066;-90
2023/01/18 11:26:58;;;;;;;16.10;6.95;;;3.60;99.90;;;;;;5114882;27;20573;-91
2023/01/18 11:29:40;;;;;;;13.43;5.78;;;3.70;99.90;;;;;;5132071;27;20043;-91
2023/01/18 11:32:16;;;;;;;13.55;5.78;;;3.80;99.90;;;;;;5108289;27;20031;-90
2023/01/18 11:34:45;;;;;;;12.05;5.35;;;3.80;99.90;;;;;;5093497;28;20035;-92
2023/01/18 11:37:33;;;;;;;10.93;5.07;;;3.90;99.90;;;;;;5112081;28;20042;-91
2023/01/18 11:40:16;;;;;;;10.23;4.50;;;3.90;99.90;;;;;;5127961;27;20039;-91
2023/01/18 11:42:42;;;;;;;11.95;5.68;;;4.00;99.90;;;;;;5108901;28;20031;-92
2023/01/18 11:45:42;;;;;;;12.82;5.00;;;4.10;99.90;;;;;;5113195;27;20629;-91
2023/01/18 11:48:34;;;;;;;11.10;5.35;;;4.10;99.90;;;;;;5131803;27;20043;-91
2023/01/18 11:51:06;;;;;;;12.00;4.82;;;4.20;99.90;;;;;;5115262;27;20035;-91
2023/01/18 11:53:55;;;;;;;13.38;6.38;;;4.30;99.90;;;;;;5114402;27;20400;-92
2023/01/18 11:56:27;;;;;;;14.70;4.95;;;4.30;99.90;;;;;;5115875;27;20123;-92
2023/01/18 11:58:53;;;;;;;10.65;4.15;;;4.50;99.90;;;;;;5131539;27;20074;-92
2023/01/18 12:01:25;;;;;;;10.23;4.60;;;4.50;99.90;;;;;;5114989;27;20039;-91
2023/01/18 12:03:55;;;;;;;10.25;5.25;;;4.60;99.90;;;;;;5108405;27;20126;-93
2023/01/18 12:06:23;;;;;;;10.25;5.18;;;4.70;99.90;;;;;;5114626;27;20043;-93
2023/01/18 12:09:02;;;;;;;12.40;4.95;;;4.80;99.90;;;;;;5114565;27;20039;-92
2023/01/18 12:11:41;;;;;;;12.85;5.03;;;4.90;99.90;;;;;;5092706;28;20058;-92
2023/01/18 12:14:47;;;;;;;10.15;4.72;;;5.00;99.90;;;;;;5091791;28;20405;-92
2023/01/18 12:17:19;;;;;;;12.07;5.53;;;5.10;99.80;;;;;;5111930;27;20032;-93
2023/01/18 12:20:05;;;;;;;9.45;4.53;;;5.30;99.90;;;;;;5108994;28;20032;-93
2023/01/18 12:23:02;;;;;;;12.20;4.53;;;5.70;99.90;;;;;;5092749;28;20066;-92
2023/01/18 12:26:04;;;;;;;9.90;4.70;;;6.30;96.00;;;;;;5082118;28;20117;-93
2023/01/18 12:28:51;;;;;;;11.70;5.30;;;6.70;93.30;;;;;;5095660;27;20269;-93
2023/01/18 12:31:43;;;;;;;11.32;5.10;;;7.30;91.60;;;;;;5093463;28;20426;-92
2023/01/18 12:34:19;;;;;;;11.43;4.30;;;8.30;90.40;;;;;;5093234;27;20092;-92
2023/01/18 12:37:09;;;;;;;7.97;3.78;;;9.50;85.30;;;;;;5090952;28;20043;-92
2023/01/18 12:39:37;;;;;;;10.43;3.45;;;10.10;77.20;;;;;;5126610;27;20043;-93
2023/01/18 12:42:25;;;;;;;9.70;3.75;;;10.70;77.30;;;;;;5108952;27;20055;-92
2023/01/18 12:45:05;;;;;;;10.98;3.45;;;11.30;74.10;;;;;;5125690;27;20517;-93
2023/01/18 12:47:35;;;;;;;15.52;4.22;;;11.90;74.30;;;;;;5094289;28;20092;-93
2023/01/18 12:50:13;;;;;;;8.07;3.67;;;12.50;72.80;;;;;;5090411;28;20489;-93
2023/01/18 12:52:44;;;;;;;10.02;3.72;;;13.20;71.40;;;;;;5092488;28;20427;-93
2023/01/18 12:55:20;;;;;;;8.77;3.38;;;13.60;70.00;;;;;;5091236;28;20527;-93
2023/01/18 12:57:50;;;;;;;11.48;3.80;;;13.90;67.90;;;;;;5091417;28;20071;-93
2023/01/18 13:00:23;;;;;;;8.90;4.25;;;13.80;65.50;;;;;;5109254;27;21267;-92
2023/01/18 13:02:55;;;;;;;8.77;3.97;;;14.40;63.60;;;;;;5113476;27;20058;-93
2023/01/18 13:05:34;;;;;;;7.97;4.00;;;14.70;62.40;;;;;;5113599;27;20042;-92
2023/01/18 13:08:41;;;;;;;9.55;4.00;;;15.10;60.10;;;;;;5130811;27;20087;-93
2023/01/18 13:11:18;;;;;;;12.93;4.40;;;15.20;56.80;;;;;;5127786;27;20032;-92
2023/01/18 13:13:46;;;;;;;9.85;4.25;;;15.30;57.70;;;;;;5093004;28;20134;-93
2023/01/18 13:16:30;;;;;;;9.30;4.28;;;15.50;58.00;;;;;;5116929;27;20074;-93
2023/01/18 13:19:02;;;;;;;8.75;4.50;;;15.80;55.80;;;;;;5113329;27;20045;-93
2023/01/18 13:21:41;;;;;;;7.43;3.60;;;15.80;55.00;;;;;;5131255;27;20038;-93
2023/01/18 13:24:26;;;;;;;9.40;4.38;;;15.50;55.20;;;;;;5128443;27;20050;-93
2023/01/18 13:27:04;;;;;;;10.90;4.72;;;15.60;54.50;;;;;;5113187;27;20035;-93
2023/01/18 13:29:30;;;;;;;7.80;3.97;;;15.60;54.30;;;;;;5130164;27;20084;-93